Time;durP1;ratioP1;P1;durP2;ratioP2;P2;SDS_P1;SDS_P2;PMS_P1;PMS_P2;Temp;Humidity;BMP_temperature;BMP_pressure;BME280_temperature;BME280_humidity;BME280_pressure;Samples;Min_cycle;Max_cycle;Signal;HPM_P1;HPM_P2
2023/04/16 01:25:49;;;;;;;;;;;20.20;40.10;;;;;;2901495;19;50729;-72
2023/04/16 01:26:50;;;;;;;;;;;20.30;44.40;;;;;;3045858;19;4748;-74
2023/04/16 01:27:53;;;;;;;;;;;20.30;44.40;;;;;;3052759;19;5185;-77
2023/04/16 01:28:54;;;;;;;;;;;20.30;44.40;;;;;;3048510;19;5002;-80
2023/04/16 01:29:55;;;;;;;;;;;20.20;44.40;;;;;;3050194;19;4802;-78
2023/04/16 01:30:56;;;;;;;;;;;20.30;44.40;;;;;;3051069;19;4787;-78
2023/04/16 01:31:56;;;;;;;;;;;20.30;44.40;;;;;;3050661;19;5097;-79
2023/04/16 01:32:57;;;;;;;;;;;20.20;44.40;;;;;;3048719;19;4848;-79
2023/04/16 01:33:58;;;;;;;;;;;20.20;44.40;;;;;;3049743;19;4372;-79
2023/04/16 01:34:59;;;;;;;;;;;20.20;44.50;;;;;;3049313;19;4777;-82
2023/04/16 01:36:01;;;;;;;;;;;20.20;44.50;;;;;;3049680;19;4517;-80
2023/04/16 01:37:02;;;;;;;;;;;20.20;44.40;;;;;;3041498;19;4762;-81
2023/04/16 01:38:04;;;;;;;;;;;20.20;44.30;;;;;;3051934;19;4301;-81
2023/04/16 01:39:05;;;;;;;;;;;20.20;44.40;;;;;;3050845;19;4629;-80
2023/04/16 01:40:06;;;;;;;;;;;20.20;44.40;;;;;;3048595;19;4866;-81
2023/04/16 01:41:08;;;;;;;;;;;20.20;44.40;;;;;;3048196;19;5618;-81
2023/04/16 01:42:08;;;;;;;;;;;20.20;44.50;;;;;;3048256;19;4876;-81
2023/04/16 01:43:09;;;;;;;;;;;20.20;44.60;;;;;;3047976;19;4329;-80
2023/04/16 01:44:11;;;;;;;;;;;20.20;44.50;;;;;;3049317;19;4852;-83
2023/04/16 01:45:12;;;;;;;;;;;20.20;44.50;;;;;;3037518;19;5113;-80
2023/04/16 01:46:38;;;;;;;;;;;20.20;44.50;;;;;;3051880;19;959;-82
2023/04/16 01:47:39;;;;;;;;;;;20.20;44.50;;;;;;2943881;19;2007304;-79
2023/04/16 01:48:40;;;;;;;;;;;20.20;44.50;;;;;;3050952;19;4763;-80
2023/04/16 01:49:42;;;;;;;;;;;20.20;44.50;;;;;;3049771;19;4804;-79
2023/04/16 01:50:43;;;;;;;;;;;20.20;44.50;;;;;;3050237;19;5062;-81
2023/04/16 01:51:44;;;;;;;;;;;20.20;44.60;;;;;;3050458;19;4918;-80
2023/04/16 01:52:44;;;;;;;;;;;20.20;44.50;;;;;;3049314;19;4932;-82
2023/04/16 01:53:45;;;;;;;;;;;20.20;44.60;;;;;;3050494;19;4919;-79
2023/04/16 01:54:46;;;;;;;;;;;20.20;44.50;;;;;;3049717;19;4886;-79
2023/04/16 01:55:46;;;;;;;;;;;20.20;44.60;;;;;;3050792;19;4961;-80
2023/04/16 01:56:47;;;;;;;;;;;20.10;44.60;;;;;;3049513;19;4991;-80
2023/04/16 01:57:48;;;;;;;;;;;20.20;44.50;;;;;;3049840;19;5089;-81
2023/04/16 01:58:49;;;;;;;;;;;20.30;45.30;;;;;;3049517;19;4487;-79
2023/04/16 01:59:49;;;;;;;;;;;20.20;44.50;;;;;;3051005;19;4788;-80
2023/04/16 02:00:50;;;;;;;;;;;20.20;45.00;;;;;;3050016;19;4735;-79
2023/04/16 02:01:51;;;;;;;;;;;20.20;44.60;;;;;;3050859;19;4858;-79
2023/04/16 02:02:51;;;;;;;;;;;20.20;44.60;;;;;;3050479;19;4846;-79
2023/04/16 02:03:52;;;;;;;;;;;20.20;44.60;;;;;;3051176;19;4338;-80
2023/04/16 02:04:53;;;;;;;;;;;20.20;44.60;;;;;;3050676;19;4845;-80
2023/04/16 02:05:53;;;;;;;;;;;20.20;44.60;;;;;;3054839;19;5512;-81
2023/04/16 02:06:54;;;;;;;;;;;20.20;44.50;;;;;;3052304;19;4328;-80
2023/04/16 02:07:55;;;;;;;;;;;20.20;44.60;;;;;;3052513;19;4816;-78
2023/04/16 02:08:56;;;;;;;;;;;20.10;44.60;;;;;;3051871;19;4572;-83
2023/04/16 02:09:57;;;;;;;;;;;20.10;44.60;;;;;;3051402;19;5639;-78
2023/04/16 02:10:58;;;;;;;;;;;20.20;44.60;;;;;;3050362;19;4889;-81
2023/04/16 02:11:58;;;;;;;;;;;20.20;44.60;;;;;;3049760;19;5760;-81
2023/04/16 02:12:59;;;;;;;;;;;20.20;44.70;;;;;;3049175;19;4872;-80
2023/04/16 02:14:00;;;;;;;;;;;20.20;44.60;;;;;;3049596;19;4874;-80
2023/04/16 02:15:01;;;;;;;;;;;20.10;44.60;;;;;;3049598;19;4345;-77
2023/04/16 02:16:01;;;;;;;;;;;20.10;44.60;;;;;;3050629;19;4864;-81
2023/04/16 02:17:02;;;;;;;;;;;20.10;44.60;;;;;;3051606;19;4622;-79
2023/04/16 02:18:03;;;;;;;;;;;20.40;44.80;;;;;;3051892;19;4284;-81
2023/04/16 02:19:03;;;;;;;;;;;20.10;44.50;;;;;;3053739;19;4795;-80
2023/04/16 02:20:07;;;;;;;;;;;20.10;44.60;;;;;;3053474;19;4331;-79
2023/04/16 02:21:09;;;;;;;;;;;20.10;44.60;;;;;;3052756;19;4407;-79
2023/04/16 02:22:10;;;;;;;;;;;20.10;44.70;;;;;;3053282;19;4435;-80
2023/04/16 02:23:11;;;;;;;;;;;20.10;44.60;;;;;;3052376;19;4313;-81
2023/04/16 02:24:11;;;;;;;;;;;20.10;44.70;;;;;;3049739;19;4802;-81
2023/04/16 02:25:13;;;;;;;;;;;20.10;44.60;;;;;;3031664;19;4534;-80
2023/04/16 02:26:13;;;;;;;;;;;20.10;44.70;;;;;;3053372;19;4911;-78
2023/04/16 02:27:14;;;;;;;;;;;20.10;44.70;;;;;;3053290;19;1010;-80
2023/04/16 02:28:15;;;;;;;;;;;20.10;44.60;;;;;;3049519;19;4471;-82
2023/04/16 02:29:16;;;;;;;;;;;20.10;44.70;;;;;;3053648;19;4615;-80
2023/04/16 02:30:18;;;;;;;;;;;20.10;44.70;;;;;;3053729;19;5041;-79
2023/04/16 02:31:20;;;;;;;;;;;20.10;44.60;;;;;;3053044;19;5018;-80
2023/04/16 02:32:21;;;;;;;;;;;20.10;44.70;;;;;;3052951;19;4937;-80
2023/04/16 02:33:24;;;;;;;;;;;20.10;44.70;;;;;;3052423;19;4332;-82
2023/04/16 02:34:25;;;;;;;;;;;20.10;44.70;;;;;;3052480;19;4299;-80
2023/04/16 02:35:26;;;;;;;;;;;20.10;44.70;;;;;;3052029;19;4391;-82
2023/04/16 02:36:27;;;;;;;;;;;20.10;44.80;;;;;;3052997;19;4538;-82
2023/04/16 02:37:27;;;;;;;;;;;20.10;44.70;;;;;;3053401;19;4586;-79
2023/04/16 02:38:28;;;;;;;;;;;20.10;44.80;;;;;;3053214;19;4894;-80
2023/04/16 02:39:30;;;;;;;;;;;20.10;44.90;;;;;;3053215;19;4892;-79
2023/04/16 02:40:31;;;;;;;;;;;20.10;44.70;;;;;;3053040;19;4705;-79
2023/04/16 02:41:31;;;;;;;;;;;20.10;44.80;;;;;;3053383;19;4589;-81
2023/04/16 02:42:32;;;;;;;;;;;20.10;44.80;;;;;;3053725;19;4972;-80
2023/04/16 02:43:32;;;;;;;;;;;20.10;44.80;;;;;;3055038;19;4814;-78
2023/04/16 02:44:33;;;;;;;;;;;20.10;44.80;;;;;;3052921;19;4684;-82
2023/04/16 02:45:34;;;;;;;;;;;20.10;44.80;;;;;;3054000;19;4852;-79
2023/04/16 02:46:34;;;;;;;;;;;20.10;44.90;;;;;;3053998;19;4473;-81
2023/04/16 02:47:35;;;;;;;;;;;20.10;44.80;;;;;;3054300;19;4896;-79
2023/04/16 02:48:36;;;;;;;;;;;20.10;44.80;;;;;;3054844;19;4373;-80
2023/04/16 02:49:36;;;;;;;;;;;20.10;44.90;;;;;;3053685;19;5148;-78
2023/04/16 02:50:37;;;;;;;;;;;20.10;45.50;;;;;;3053151;19;4858;-80
2023/04/16 02:51:38;;;;;;;;;;;20.10;44.70;;;;;;3052907;19;5235;-79
2023/04/16 02:52:38;;;;;;;;;;;20.00;44.70;;;;;;3051691;19;4833;-80
2023/04/16 02:53:39;;;;;;;;;;;20.00;44.80;;;;;;3053280;19;5971;-80
2023/04/16 02:54:39;;;;;;;;;;;20.10;44.90;;;;;;3051897;19;4356;-80
2023/04/16 02:55:40;;;;;;;;;;;20.00;44.80;;;;;;3052374;19;5100;-80
2023/04/16 02:56:41;;;;;;;;;;;20.00;44.90;;;;;;3051837;19;4879;-79
2023/04/16 02:57:41;;;;;;;;;;;20.00;44.80;;;;;;3051531;19;4389;-79
2023/04/16 02:58:42;;;;;;;;;;;20.00;44.80;;;;;;3052292;19;4325;-81
2023/04/16 02:59:43;;;;;;;;;;;20.00;44.80;;;;;;3052975;19;4876;-80
2023/04/16 03:00:43;;;;;;;;;;;20.00;44.80;;;;;;3052490;19;4985;-81
2023/04/16 03:01:44;;;;;;;;;;;20.00;44.70;;;;;;3052172;19;5007;-78
2023/04/16 03:02:45;;;;;;;;;;;20.00;44.80;;;;;;3051834;19;4921;-79
2023/04/16 03:03:45;;;;;;;;;;;20.00;44.90;;;;;;3051948;19;4986;-83
2023/04/16 03:04:46;;;;;;;;;;;20.00;44.90;;;;;;3052647;19;4879;-80
2023/04/16 03:05:47;;;;;;;;;;;20.00;44.90;;;;;;3053501;19;4325;-80
2023/04/16 03:06:47;;;;;;;;;;;20.00;44.90;;;;;;3053472;19;4737;-80
2023/04/16 03:07:49;;;;;;;;;;;20.00;44.90;;;;;;3053420;19;5821;-78
2023/04/16 03:08:50;;;;;;;;;;;20.00;44.90;;;;;;3053382;19;4735;-80
2023/04/16 03:09:50;;;;;;;;;;;20.00;45.00;;;;;;3052840;19;4662;-80
2023/04/16 03:10:51;;;;;;;;;;;20.00;45.00;;;;;;3051946;19;4393;-79
2023/04/16 03:11:51;;;;;;;;;;;20.00;45.00;;;;;;3052296;19;4856;-81
2023/04/16 03:12:52;;;;;;;;;;;20.00;44.90;;;;;;3051969;19;4891;-80
2023/04/16 03:13:53;;;;;;;;;;;20.00;44.90;;;;;;3052302;19;4676;-81
2023/04/16 03:14:53;;;;;;;;;;;20.00;45.00;;;;;;3052726;19;5003;-79
2023/04/16 03:15:54;;;;;;;;;;;20.00;44.90;;;;;;3053246;19;4874;-79
2023/04/16 03:16:55;;;;;;;;;;;20.00;45.10;;;;;;3052600;19;4806;-82
2023/04/16 03:17:56;;;;;;;;;;;20.00;45.00;;;;;;3052277;19;4808;-80
2023/04/16 03:18:56;;;;;;;;;;;20.00;45.00;;;;;;3052434;19;4892;-79
2023/04/16 03:19:57;;;;;;;;;;;20.00;45.00;;;;;;3052381;19;4297;-82
2023/04/16 03:20:58;;;;;;;;;;;20.00;45.10;;;;;;3051630;19;4593;-79
2023/04/16 03:21:58;;;;;;;;;;;20.00;45.00;;;;;;3052052;19;5399;-81
2023/04/16 03:22:59;;;;;;;;;;;20.00;45.00;;;;;;3052577;19;4851;-78
2023/04/16 03:24:00;;;;;;;;;;;20.00;45.70;;;;;;3052772;19;4892;-80
2023/04/16 03:25:01;;;;;;;;;;;20.00;45.00;;;;;;3052858;19;4663;-78
2023/04/16 03:26:02;;;;;;;;;;;19.90;45.00;;;;;;3052307;19;4892;-82
2023/04/16 03:27:02;;;;;;;;;;;19.90;45.00;;;;;;3052417;19;5050;-78
2023/04/16 03:28:03;;;;;;;;;;;19.90;45.00;;;;;;3050911;19;4829;-83
2023/04/16 03:29:04;;;;;;;;;;;19.90;45.10;;;;;;3052165;19;5038;-80
2023/04/16 03:30:06;;;;;;;;;;;19.90;45.10;;;;;;3052107;19;4847;-81
2023/04/16 03:31:07;;;;;;;;;;;19.90;45.00;;;;;;3051462;19;4782;-83
2023/04/16 03:32:07;;;;;;;;;;;19.90;45.00;;;;;;3053295;19;977;-81
2023/04/16 03:33:08;;;;;;;;;;;19.90;45.00;;;;;;3050514;19;4769;-79
2023/04/16 03:34:08;;;;;;;;;;;20.00;44.80;;;;;;3051615;19;4818;-80
2023/04/16 03:35:11;;;;;;;;;;;20.00;44.70;;;;;;3051956;19;4891;-78
2023/04/16 03:36:12;;;;;;;;;;;20.00;45.20;;;;;;3051916;19;4320;-78
2023/04/16 03:37:13;;;;;;;;;;;20.10;45.30;;;;;;3051832;19;4875;-81
2023/04/16 03:38:13;;;;;;;;;;;20.10;45.20;;;;;;3051953;19;4966;-79
2023/04/16 03:39:14;;;;;;;;;;;20.20;45.10;;;;;;3051594;19;4839;-81
2023/04/16 03:40:15;;;;;;;;;;;20.30;45.10;;;;;;3054217;19;721;-78
2023/04/16 03:41:15;;;;;;;;;;;20.40;44.80;;;;;;3050017;19;4758;-80
2023/04/16 03:42:16;;;;;;;;;;;20.50;44.60;;;;;;3051871;19;4653;-78
2023/04/16 03:43:18;;;;;;;;;;;20.50;44.40;;;;;;3051953;19;4806;-80
2023/04/16 03:44:19;;;;;;;;;;;20.60;44.30;;;;;;3051808;19;4729;-79
2023/04/16 03:45:20;;;;;;;;;;;20.60;44.20;;;;;;3052369;19;4318;-79
2023/04/16 03:46:20;;;;;;;;;;;20.60;44.20;;;;;;3053120;19;4393;-78
2023/04/16 03:47:21;;;;;;;;;;;20.60;44.10;;;;;;3052105;19;4863;-80
2023/04/16 03:48:22;;;;;;;;;;;20.60;44.00;;;;;;3052784;19;4846;-79
2023/04/16 03:49:22;;;;;;;;;;;20.60;44.00;;;;;;3052510;19;5335;-80
2023/04/16 03:50:23;;;;;;;;;;;20.60;44.10;;;;;;3052298;19;4834;-80
2023/04/16 03:51:23;;;;;;;;;;;20.60;44.00;;;;;;3051635;19;4385;-79
2023/04/16 03:52:24;;;;;;;;;;;20.60;44.00;;;;;;3051847;19;4330;-79
2023/04/16 03:53:25;;;;;;;;;;;20.60;44.00;;;;;;3050948;19;5291;-85
2023/04/16 03:54:25;;;;;;;;;;;20.60;43.90;;;;;;3051415;19;5084;-80
2023/04/16 03:55:27;;;;;;;;;;;20.80;43.80;;;;;;3051987;19;4817;-79
2023/04/16 03:56:27;;;;;;;;;;;20.80;43.70;;;;;;3051785;19;4410;-83
2023/04/16 03:57:28;;;;;;;;;;;20.90;43.60;;;;;;3052033;19;4781;-80
2023/04/16 03:58:29;;;;;;;;;;;20.90;43.50;;;;;;3051001;19;4815;-80
2023/04/16 03:59:29;;;;;;;;;;;20.90;43.30;;;;;;3050775;19;4925;-82
2023/04/16 04:00:30;;;;;;;;;;;20.90;43.30;;;;;;3051612;19;4854;-81
2023/04/16 04:01:31;;;;;;;;;;;20.90;43.30;;;;;;3050949;19;4753;-78
2023/04/16 04:02:31;;;;;;;;;;;20.90;43.30;;;;;;3051480;19;6025;-80
2023/04/16 04:03:32;;;;;;;;;;;20.90;43.40;;;;;;3051168;19;5089;-81
2023/04/16 04:04:32;;;;;;;;;;;20.90;43.40;;;;;;3051280;19;4872;-81
2023/04/16 04:05:40;;;;;;;;;;;20.90;43.40;;;;;;3051057;19;4387;-82
2023/04/16 04:06:40;;;;;;;;;;;20.90;43.40;;;;;;3051583;19;4904;-79
2023/04/16 04:07:41;;;;;;;;;;;20.90;43.40;;;;;;3050229;19;4885;-82
2023/04/16 04:08:42;;;;;;;;;;;20.90;43.40;;;;;;3052513;19;4531;-78
2023/04/16 04:09:42;;;;;;;;;;;20.90;43.40;;;;;;3051894;19;4754;-80
2023/04/16 04:10:44;;;;;;;;;;;21.00;43.30;;;;;;3050760;19;4969;-81
2023/04/16 04:11:45;;;;;;;;;;;21.10;43.20;;;;;;3051491;19;4901;-80
2023/04/16 04:12:45;;;;;;;;;;;21.10;43.00;;;;;;3051294;19;4809;-79
2023/04/16 04:13:46;;;;;;;;;;;21.10;42.90;;;;;;3050764;19;4918;-81
2023/04/16 04:14:47;;;;;;;;;;;21.10;42.90;;;;;;3050808;19;4877;-82
2023/04/16 04:15:47;;;;;;;;;;;21.20;42.90;;;;;;3051342;19;4774;-80
2023/04/16 04:16:48;;;;;;;;;;;21.20;42.90;;;;;;3051432;19;4838;-78
2023/04/16 04:17:49;;;;;;;;;;;21.10;42.90;;;;;;3051986;19;5466;-79
2023/04/16 04:18:49;;;;;;;;;;;21.20;43.00;;;;;;3051581;19;4366;-81
2023/04/16 04:19:52;;;;;;;;;;;21.10;42.90;;;;;;3051255;19;4826;-82
2023/04/16 04:20:53;;;;;;;;;;;21.10;42.90;;;;;;3052081;19;4774;-77
2023/04/16 04:21:54;;;;;;;;;;;21.20;43.00;;;;;;3050852;19;4746;-79
2023/04/16 04:22:54;;;;;;;;;;;21.20;42.90;;;;;;3051970;19;5013;-79
2023/04/16 04:23:55;;;;;;;;;;;21.10;42.90;;;;;;3051441;19;4744;-80
2023/04/16 04:24:56;;;;;;;;;;;21.10;42.90;;;;;;3051694;19;4863;-79
2023/04/16 04:25:56;;;;;;;;;;;21.10;43.60;;;;;;3052464;19;5287;-80
2023/04/16 04:26:57;;;;;;;;;;;21.10;42.90;;;;;;3051043;19;4782;-77
2023/04/16 04:27:58;;;;;;;;;;;21.10;42.90;;;;;;3050508;19;5050;-81
2023/04/16 04:28:59;;;;;;;;;;;21.10;43.00;;;;;;3050838;19;4367;-81
2023/04/16 04:29:59;;;;;;;;;;;21.10;42.90;;;;;;3051370;19;4330;-80
2023/04/16 04:31:00;;;;;;;;;;;21.10;43.00;;;;;;3051478;19;4901;-79
2023/04/16 04:32:01;;;;;;;;;;;21.10;43.00;;;;;;3051547;19;4928;-80
2023/04/16 04:33:01;;;;;;;;;;;21.10;43.00;;;;;;3051187;19;4797;-82
2023/04/16 04:34:02;;;;;;;;;;;21.10;43.00;;;;;;3051975;19;4906;-80
2023/04/16 04:35:03;;;;;;;;;;;21.00;43.00;;;;;;3050400;19;4927;-80
2023/04/16 04:36:03;;;;;;;;;;;21.10;43.10;;;;;;3051891;19;4928;-78
2023/04/16 04:37:04;;;;;;;;;;;21.10;43.10;;;;;;3051249;19;4321;-82
2023/04/16 04:38:05;;;;;;;;;;;21.00;43.10;;;;;;3051428;19;4718;-80
2023/04/16 04:39:06;;;;;;;;;;;21.00;43.10;;;;;;3051940;19;4796;-80
2023/04/16 04:40:07;;;;;;;;;;;21.00;43.00;;;;;;3048729;19;4879;-79
2023/04/16 04:41:08;;;;;;;;;;;21.00;43.10;;;;;;3051163;19;4893;-78
2023/04/16 04:42:08;;;;;;;;;;;21.00;43.10;;;;;;3052890;19;1892;-78
2023/04/16 04:43:09;;;;;;;;;;;21.00;43.10;;;;;;3051487;19;4785;-79
2023/04/16 04:44:09;;;;;;;;;;;21.00;43.00;;;;;;3051288;19;4797;-79
2023/04/16 04:45:10;;;;;;;;;;;20.90;43.10;;;;;;3053309;19;4825;-80
2023/04/16 04:46:11;;;;;;;;;;;21.00;43.30;;;;;;3052621;19;4824;-81
2023/04/16 04:47:12;;;;;;;;;;;21.00;43.30;;;;;;3054932;19;4924;-79
2023/04/16 04:48:14;;;;;;;;;;;21.00;43.20;;;;;;3053776;19;4995;-78
2023/04/16 04:49:15;;;;;;;;;;;21.10;43.20;;;;;;3054125;19;4926;-80
2023/04/16 04:50:17;;;;;;;;;;;21.10;43.00;;;;;;3054328;19;4846;-78
2023/04/16 04:51:18;;;;;;;;;;;21.10;42.90;;;;;;3054462;19;4896;-86
2023/04/16 04:52:19;;;;;;;;;;;21.20;42.90;;;;;;3052075;19;4813;-78
2023/04/16 04:53:20;;;;;;;;;;;21.20;42.80;;;;;;3051968;19;4863;-78
2023/04/16 04:54:20;;;;;;;;;;;21.20;42.80;;;;;;3052673;19;4330;-78
2023/04/16 04:55:21;;;;;;;;;;;21.20;42.80;;;;;;3051906;19;5023;-77
2023/04/16 04:56:22;;;;;;;;;;;21.20;42.80;;;;;;3051628;19;4336;-79
2023/04/16 04:57:24;;;;;;;;;;;21.20;42.90;;;;;;3051800;19;4528;-78
2023/04/16 04:58:25;;;;;;;;;;;21.20;42.80;;;;;;3052995;19;4573;-79
2023/04/16 04:59:25;;;;;;;;;;;21.20;42.80;;;;;;3051072;19;4806;-79
2023/04/16 05:00:26;;;;;;;;;;;21.20;42.90;;;;;;3051851;19;4891;-80
2023/04/16 05:01:26;;;;;;;;;;;21.20;42.80;;;;;;3052108;19;4988;-82
2023/04/16 05:02:27;;;;;;;;;;;21.20;42.80;;;;;;3051201;19;4292;-80
2023/04/16 05:03:28;;;;;;;;;;;21.20;42.80;;;;;;3051757;19;4930;-77
2023/04/16 05:04:29;;;;;;;;;;;21.20;42.70;;;;;;3050807;19;4704;-80
2023/04/16 05:05:30;;;;;;;;;;;21.20;42.70;;;;;;3050798;19;4990;-82
2023/04/16 05:06:31;;;;;;;;;;;21.20;42.80;;;;;;3051039;19;4896;-78
2023/04/16 05:07:32;;;;;;;;;;;21.20;42.80;;;;;;3051400;19;5065;-79
2023/04/16 05:08:33;;;;;;;;;;;21.20;42.80;;;;;;3049918;19;4319;-80
2023/04/16 05:09:34;;;;;;;;;;;21.10;42.70;;;;;;3051372;19;5518;-78
2023/04/16 05:10:34;;;;;;;;;;;21.10;42.80;;;;;;3051100;19;4348;-79
2023/04/16 05:11:35;;;;;;;;;;;21.20;42.90;;;;;;3052408;19;4843;-82
2023/04/16 05:12:36;;;;;;;;;;;21.10;42.90;;;;;;3052009;19;5605;-82
2023/04/16 05:13:36;;;;;;;;;;;21.10;42.90;;;;;;3052143;19;4775;-82
2023/04/16 05:14:37;;;;;;;;;;;21.10;42.80;;;;;;3052180;19;4985;-82
2023/04/16 05:15:38;;;;;;;;;;;21.10;43.00;;;;;;3051036;19;4366;-80
2023/04/16 05:16:38;;;;;;;;;;;21.10;42.90;;;;;;3050936;19;4847;-79
2023/04/16 05:17:39;;;;;;;;;;;21.10;42.90;;;;;;3050801;19;4711;-80
2023/04/16 05:18:40;;;;;;;;;;;21.00;42.80;;;;;;3049736;19;4982;-80
2023/04/16 05:19:41;;;;;;;;;;;21.00;42.90;;;;;;3050390;19;4406;-80
2023/04/16 05:20:41;;;;;;;;;;;21.00;43.00;;;;;;3049705;19;4688;-80
2023/04/16 05:21:42;;;;;;;;;;;21.00;42.90;;;;;;3050498;19;4377;-82
2023/04/16 05:22:43;;;;;;;;;;;21.00;43.00;;;;;;3051242;19;4454;-78
2023/04/16 05:23:43;;;;;;;;;;;21.00;42.90;;;;;;3050179;19;4675;-81
2023/04/16 05:24:44;;;;;;;;;;;21.00;42.90;;;;;;3050005;19;4346;-81
2023/04/16 05:25:46;;;;;;;;;;;21.00;43.00;;;;;;3051030;19;4881;-81
2023/04/16 05:26:46;;;;;;;;;;;20.90;43.20;;;;;;3041999;19;6494;-84
2023/04/16 05:27:47;;;;;;;;;;;21.00;43.20;;;;;;3050134;19;5045;-82
2023/04/16 05:28:48;;;;;;;;;;;21.00;43.20;;;;;;3050866;19;4643;-82
2023/04/16 05:29:49;;;;;;;;;;;21.10;43.20;;;;;;3049801;19;4850;-82
2023/04/16 05:30:49;;;;;;;;;;;21.10;43.00;;;;;;3049541;19;4312;-77
2023/04/16 05:31:51;;;;;;;;;;;21.10;43.00;;;;;;3029110;19;4854;-80
2023/04/16 05:32:52;;;;;;;;;;;21.10;42.90;;;;;;3049981;19;4866;-79
2023/04/16 05:33:53;;;;;;;;;;;21.10;42.90;;;;;;3051548;19;4831;-80
2023/04/16 05:34:53;;;;;;;;;;;21.20;42.80;;;;;;3029120;19;4758;-81
2023/04/16 05:35:54;;;;;;;;;;;21.20;42.80;;;;;;3049854;19;5138;-79
2023/04/16 05:36:55;;;;;;;;;;;21.20;42.80;;;;;;3051608;19;4866;-80
2023/04/16 05:37:55;;;;;;;;;;;21.20;42.80;;;;;;3050897;19;5030;-79
2023/04/16 05:38:56;;;;;;;;;;;21.30;42.80;;;;;;3050055;19;4379;-81
2023/04/16 05:39:58;;;;;;;;;;;21.30;42.70;;;;;;3051507;19;5402;-81
2023/04/16 05:40:59;;;;;;;;;;;21.40;42.50;;;;;;3051266;19;4912;-79
2023/04/16 05:41:59;;;;;;;;;;;21.40;42.50;;;;;;3051591;19;4994;-79
2023/04/16 05:43:00;;;;;;;;;;;21.40;42.50;;;;;;3050306;19;4848;-82
2023/04/16 05:44:01;;;;;;;;;;;21.40;42.40;;;;;;3051533;19;4370;-80
2023/04/16 05:45:03;;;;;;;;;;;21.40;42.40;;;;;;3051454;19;4949;-80
2023/04/16 05:46:04;;;;;;;;;;;21.40;42.30;;;;;;3049767;19;4797;-80
2023/04/16 05:47:06;;;;;;;;;;;21.40;42.40;;;;;;3050578;19;4448;-80
2023/04/16 05:48:10;;;;;;;;;;;21.40;42.30;;;;;;3048187;19;4957;-81
2023/04/16 05:49:11;;;;;;;;;;;21.40;42.40;;;;;;3049607;19;4859;-79
2023/04/16 05:50:11;;;;;;;;;;;21.40;42.30;;;;;;3049251;19;4363;-80
2023/04/16 05:51:12;;;;;;;;;;;21.40;42.40;;;;;;3049228;19;4898;-80
2023/04/16 05:52:13;;;;;;;;;;;21.20;42.30;;;;;;3050489;19;4926;-80
2023/04/16 05:53:15;;;;;;;;;;;21.40;42.50;;;;;;3052964;19;4376;-79
2023/04/16 05:54:15;;;;;;;;;;;21.40;42.50;;;;;;3054010;19;4878;-80
2023/04/16 05:55:16;;;;;;;;;;;21.40;42.50;;;;;;3053365;19;4340;-79
2023/04/16 05:56:17;;;;;;;;;;;21.40;42.50;;;;;;3031087;19;4325;-80
2023/04/16 05:57:17;;;;;;;;;;;21.40;42.50;;;;;;3054177;19;4820;-82
2023/04/16 05:58:18;;;;;;;;;;;21.40;42.50;;;;;;3053576;19;4978;-82
2023/04/16 05:59:19;;;;;;;;;;;21.40;42.50;;;;;;3052664;19;5312;-80
2023/04/16 06:00:20;;;;;;;;;;;21.40;42.50;;;;;;3051746;19;4835;-79
2023/04/16 06:01:21;;;;;;;;;;;21.40;42.90;;;;;;3052155;19;4352;-83
2023/04/16 06:02:22;;;;;;;;;;;21.40;42.60;;;;;;3052322;19;4388;-80
2023/04/16 06:03:22;;;;;;;;;;;21.40;42.50;;;;;;3052647;19;4889;-80
2023/04/16 06:04:23;;;;;;;;;;;21.40;42.50;;;;;;3053631;19;5615;-81
2023/04/16 06:05:25;;;;;;;;;;;21.30;42.50;;;;;;3051751;19;4931;-82
2023/04/16 06:06:26;;;;;;;;;;;21.40;42.50;;;;;;3032373;19;4942;-79
2023/04/16 06:07:27;;;;;;;;;;;21.40;42.50;;;;;;3052498;19;4925;-80
2023/04/16 06:08:27;;;;;;;;;;;21.40;42.50;;;;;;3052677;19;5061;-80
2023/04/16 06:09:29;;;;;;;;;;;21.50;42.60;;;;;;3047729;19;4816;-79
2023/04/16 06:10:30;;;;;;;;;;;21.40;42.50;;;;;;3052498;19;4384;-82
2023/04/16 06:11:30;;;;;;;;;;;21.40;42.50;;;;;;3052107;19;4902;-79
2023/04/16 06:12:31;;;;;;;;;;;21.40;42.50;;;;;;3052736;19;4817;-78
2023/04/16 06:13:32;;;;;;;;;;;21.40;42.50;;;;;;3031453;19;4376;-81
2023/04/16 06:14:32;;;;;;;;;;;21.40;42.50;;;;;;3053566;19;4859;-82
2023/04/16 06:15:33;;;;;;;;;;;21.40;42.60;;;;;;3054160;19;5063;-80
2023/04/16 06:16:34;;;;;;;;;;;21.40;43.30;;;;;;3054833;19;4887;-78
2023/04/16 06:17:34;;;;;;;;;;;21.30;42.60;;;;;;3052950;19;4412;-80
2023/04/16 06:18:35;;;;;;;;;;;21.30;42.60;;;;;;3053326;19;4999;-80
2023/04/16 06:19:36;;;;;;;;;;;21.30;42.60;;;;;;3052668;19;4763;-80
2023/04/16 06:20:36;;;;;;;;;;;21.30;42.70;;;;;;3053048;19;4775;-81
2023/04/16 06:21:37;;;;;;;;;;;21.30;42.80;;;;;;3052853;19;4411;-79
2023/04/16 06:22:38;;;;;;;;;;;21.30;42.80;;;;;;3052919;19;4879;-81
2023/04/16 06:23:38;;;;;;;;;;;21.30;42.80;;;;;;3050865;19;4983;-81
2023/04/16 06:24:39;;;;;;;;;;;21.30;42.90;;;;;;3050778;19;4870;-80
2023/04/16 06:25:40;;;;;;;;;;;21.20;42.90;;;;;;3053719;19;4867;-80
2023/04/16 06:26:41;;;;;;;;;;;21.20;42.90;;;;;;3050335;19;4932;-80
2023/04/16 06:27:41;;;;;;;;;;;21.20;42.90;;;;;;3052171;19;4348;-82
2023/04/16 06:28:42;;;;;;;;;;;21.20;42.90;;;;;;3053486;19;5725;-82
2023/04/16 06:29:43;;;;;;;;;;;21.20;42.80;;;;;;3052394;19;4717;-82
2023/04/16 06:30:43;;;;;;;;;;;21.20;43.00;;;;;;3052591;19;4892;-80
2023/04/16 06:31:44;;;;;;;;;;;21.20;43.30;;;;;;3052761;19;4727;-82
2023/04/16 06:32:45;;;;;;;;;;;21.20;43.20;;;;;;3054395;19;4691;-82
2023/04/16 06:33:46;;;;;;;;;;;21.20;43.20;;;;;;3053660;19;4905;-82
2023/04/16 06:34:46;;;;;;;;;;;21.20;43.10;;;;;;3051717;19;4594;-79
2023/04/16 06:35:47;;;;;;;;;;;21.30;43.10;;;;;;3051951;19;4907;-80
2023/04/16 06:36:47;;;;;;;;;;;21.30;43.10;;;;;;3053113;19;4927;-79
2023/04/16 06:37:48;;;;;;;;;;;21.30;43.00;;;;;;3051249;19;4673;-81
2023/04/16 06:38:49;;;;;;;;;;;21.40;42.90;;;;;;3051530;19;4966;-82
2023/04/16 06:39:49;;;;;;;;;;;21.30;42.80;;;;;;3051303;19;4808;-80
2023/04/16 06:40:50;;;;;;;;;;;21.40;42.90;;;;;;3051793;19;4904;-79
2023/04/16 06:41:51;;;;;;;;;;;21.40;42.80;;;;;;3050968;19;4798;-81
2023/04/16 06:42:52;;;;;;;;;;;21.40;42.80;;;;;;3049780;19;4365;-83
2023/04/16 06:43:53;;;;;;;;;;;21.60;42.90;;;;;;3047798;19;4937;-82
2023/04/16 06:44:53;;;;;;;;;;;21.40;42.90;;;;;;3050877;19;4673;-81
2023/04/16 06:45:54;;;;;;;;;;;21.40;43.00;;;;;;3051844;19;4813;-82
2023/04/16 06:46:55;;;;;;;;;;;21.30;43.00;;;;;;3052299;19;4789;-81
2023/04/16 06:47:57;;;;;;;;;;;21.30;43.10;;;;;;3052691;19;5795;-80
2023/04/16 06:48:58;;;;;;;;;;;21.30;43.20;;;;;;3054027;19;4715;-82
2023/04/16 06:49:59;;;;;;;;;;;21.30;43.20;;;;;;3052636;19;4617;-82
2023/04/16 06:50:59;;;;;;;;;;;21.30;43.30;;;;;;3053793;19;4973;-82
2023/04/16 06:52:00;;;;;;;;;;;21.30;43.50;;;;;;3051749;19;4842;-86
2023/04/16 06:53:00;;;;;;;;;;;21.20;43.80;;;;;;3051072;19;4918;-83
2023/04/16 06:54:01;;;;;;;;;;;21.20;43.90;;;;;;3051549;19;4919;-82
2023/04/16 06:55:02;;;;;;;;;;;21.20;44.60;;;;;;3049506;19;4635;-80
2023/04/16 06:56:03;;;;;;;;;;;21.20;44.80;;;;;;3048861;19;4927;-82
2023/04/16 06:57:03;;;;;;;;;;;21.20;45.00;;;;;;3051296;19;4759;-84
2023/04/16 06:58:04;;;;;;;;;;;21.20;44.80;;;;;;3051958;19;4842;-80
2023/04/16 06:59:05;;;;;;;;;;;21.20;44.80;;;;;;3049086;19;4843;-83
2023/04/16 07:00:06;;;;;;;;;;;21.20;44.80;;;;;;3053088;19;5794;-81
2023/04/16 07:01:06;;;;;;;;;;;21.10;44.70;;;;;;3050532;19;4942;-80
2023/04/16 07:02:10;;;;;;;;;;;21.10;44.50;;;;;;3048241;19;4363;-83
2023/04/16 07:03:10;;;;;;;;;;;21.10;44.50;;;;;;3051303;19;5344;-81
2023/04/16 07:04:11;;;;;;;;;;;21.10;44.50;;;;;;3048337;19;4741;-84
2023/04/16 07:05:11;;;;;;;;;;;21.10;44.60;;;;;;3049509;19;4793;-80
2023/04/16 07:06:12;;;;;;;;;;;21.10;44.50;;;;;;3051836;19;4329;-82
2023/04/16 07:07:13;;;;;;;;;;;21.10;44.40;;;;;;3053092;19;4330;-79
2023/04/16 07:08:13;;;;;;;;;;;21.10;44.60;;;;;;3051382;19;5027;-80
2023/04/16 07:09:14;;;;;;;;;;;21.10;44.20;;;;;;3052257;19;876;-81
2023/04/16 07:10:15;;;;;;;;;;;21.10;43.80;;;;;;3049614;19;4368;-81
2023/04/16 07:11:16;;;;;;;;;;;21.10;44.60;;;;;;3051269;19;5014;-81
2023/04/16 07:12:16;;;;;;;;;;;21.20;44.80;;;;;;3051617;19;4360;-83
2023/04/16 07:13:17;;;;;;;;;;;21.10;44.30;;;;;;3052834;19;4827;-81
2023/04/16 07:14:18;;;;;;;;;;;21.10;44.30;;;;;;3051689;19;5049;-79
2023/04/16 07:15:18;;;;;;;;;;;21.10;44.20;;;;;;3053980;19;4965;-82
2023/04/16 07:16:19;;;;;;;;;;;21.20;44.00;;;;;;3053917;19;4840;-79
2023/04/16 07:17:20;;;;;;;;;;;21.30;44.00;;;;;;3054606;19;4884;-82
2023/04/16 07:18:21;;;;;;;;;;;21.30;43.80;;;;;;3055374;19;4975;-79
2023/04/16 07:19:21;;;;;;;;;;;21.30;43.90;;;;;;3055134;19;4340;-84
2023/04/16 07:20:22;;;;;;;;;;;21.30;43.80;;;;;;3053368;19;4861;-78
2023/04/16 07:21:23;;;;;;;;;;;21.30;43.80;;;;;;3054610;19;4906;-81
2023/04/16 07:22:23;;;;;;;;;;;21.30;43.70;;;;;;3054304;19;4860;-83
2023/04/16 07:23:24;;;;;;;;;;;21.30;43.80;;;;;;3054508;19;4868;-82
2023/04/16 07:24:25;;;;;;;;;;;21.30;43.80;;;;;;3054165;19;4314;-80
2023/04/16 07:25:27;;;;;;;;;;;21.30;43.70;;;;;;3033084;19;4765;-78